createdAt,value
2022-07-29T00:01:54.304Z,100417.44
2022-07-29T00:04:59.812Z,100421.25
2022-07-29T00:08:07.240Z,100424.44
2022-07-29T00:11:13.954Z,100426.84
2022-07-29T00:14:21.299Z,100416.16
2022-07-29T00:17:27.663Z,100419.53
2022-07-29T00:20:33.384Z,100418.72
2022-07-29T00:23:43.801Z,100419.97
2022-07-29T00:26:46.948Z,100419.53
2022-07-29T00:29:52.477Z,100419.13
2022-07-29T00:32:55.005Z,100421.47
2022-07-29T00:36:01.242Z,100430.97
2022-07-29T00:39:04.500Z,100422.75
2022-07-29T00:42:08.329Z,100424.66
2022-07-29T00:45:16.141Z,100435.19
2022-07-29T00:48:18.964Z,100424.53
2022-07-29T00:51:22.915Z,100431.72
2022-07-29T00:54:28.509Z,100428.88
2022-07-29T00:57:35.812Z,100429.84
2022-07-29T01:00:38.927Z,100424.81
2022-07-29T01:03:41.667Z,100428.66
2022-07-29T01:06:45.185Z,100432.66
2022-07-29T01:09:48.371Z,100427.13
2022-07-29T01:13:00.261Z,100423.97
2022-07-29T01:16:13.093Z,100422.50
2022-07-29T01:19:40.033Z,100423.16
2022-07-29T01:23:03.500Z,100418.75
2022-07-29T01:26:35.997Z,100426.84
2022-07-29T01:29:59.757Z,100419.84
2022-07-29T01:33:09.118Z,100415.53
2022-07-29T01:36:17.750Z,100413.97
2022-07-29T01:39:37.429Z,100418.44
2022-07-29T01:42:45.426Z,100413.47
2022-07-29T01:46:02.750Z,100413.47
2022-07-29T01:49:14.943Z,100416.84
2022-07-29T01:52:34.149Z,100415.44
2022-07-29T01:55:41.310Z,100417.22
2022-07-29T01:58:46.756Z,100416.44
2022-07-29T02:02:00.891Z,100406.94
2022-07-29T02:05:06.999Z,100412.69
2022-07-29T02:08:11.656Z,100411.50
2022-07-29T02:11:18.501Z,100415.03
2022-07-29T02:14:24.644Z,100422.31
2022-07-29T02:17:36.132Z,100417.28
2022-07-29T02:20:51.468Z,100417.63
2022-07-29T02:23:55.764Z,100406.91
2022-07-29T02:27:05.196Z,100398.84
2022-07-29T02:30:31.768Z,100409.31
2022-07-29T02:33:58.512Z,100409.47
2022-07-29T02:37:13.607Z,100407.59
2022-07-29T02:40:16.695Z,100403.97
2022-07-29T02:43:23.781Z,100408.12
2022-07-29T02:46:32.946Z,100404.31
2022-07-29T02:49:52.277Z,100408.44
2022-07-29T02:53:18.890Z,100404.28
2022-07-29T02:56:28.603Z,100411.25
2022-07-29T02:59:38.031Z,100405.72
2022-07-29T03:02:53.488Z,100403.53
2022-07-29T03:06:28.115Z,100406.37
2022-07-29T03:09:43.810Z,100411.41
2022-07-29T03:12:49.097Z,100406.84
2022-07-29T03:15:53.592Z,100401.47
2022-07-29T03:18:56.896Z,100404.31
2022-07-29T03:22:03.987Z,100397.34
2022-07-29T03:25:12.643Z,100401.44
2022-07-29T03:28:15.976Z,100402.06
2022-07-29T03:31:18.961Z,100401.91
2022-07-29T03:34:23.488Z,100406.97
2022-07-29T03:37:26.402Z,100406.00
2022-07-29T03:40:37.292Z,100407.09
2022-07-29T03:43:49.112Z,100404.13
2022-07-29T03:46:56.557Z,100409.34
2022-07-29T03:50:05.490Z,100405.22
2022-07-29T03:53:15.495Z,100411.09
2022-07-29T03:56:22.538Z,100410.00
2022-07-29T03:59:26.312Z,100421.38
2022-07-29T04:02:30.848Z,100428.81
2022-07-29T04:05:36.670Z,100416.81
2022-07-29T04:08:40.095Z,100424.88
2022-07-29T04:11:56.983Z,100420.28
2022-07-29T04:15:07.881Z,100422.81
2022-07-29T04:18:15.439Z,100419.97
2022-07-29T04:21:17.969Z,100422.22
2022-07-29T04:24:23.255Z,100416.34
2022-07-29T04:27:33.102Z,100415.22
2022-07-29T04:30:45.573Z,100423.28
2022-07-29T04:33:48.217Z,100416.00
2022-07-29T04:36:52.445Z,100418.97
2022-07-29T04:39:56.375Z,100422.00
2022-07-29T04:42:59.291Z,100423.25
2022-07-29T04:46:10.199Z,100416.44
2022-07-29T04:49:13.212Z,100427.66
2022-07-29T04:52:15.887Z,100424.31
2022-07-29T04:55:21.992Z,100428.41
2022-07-29T04:58:27.357Z,100428.06
2022-07-29T05:01:30.287Z,100436.28
2022-07-29T05:04:36.205Z,100425.00
2022-07-29T05:07:40.443Z,100430.47
2022-07-29T05:10:45.359Z,100432.12
2022-07-29T05:13:50.822Z,100437.75
2022-07-29T05:16:57.611Z,100423.03
2022-07-29T05:20:00.404Z,100430.44
2022-07-29T05:23:05.520Z,100429.72
2022-07-29T05:26:08.402Z,100435.50
2022-07-29T05:29:43.840Z,100437.28
2022-07-29T05:32:33.737Z,100429.09
2022-07-29T05:35:39.848Z,100426.66
2022-07-29T05:38:51.375Z,100425.84
2022-07-29T05:42:03.075Z,100430.34
2022-07-29T05:45:06.572Z,100432.84
2022-07-29T05:48:09.282Z,100431.06
2022-07-29T05:51:20.216Z,100435.25
2022-07-29T05:54:23.494Z,100432.88
2022-07-29T05:57:27.049Z,100435.00
2022-07-29T06:00:29.777Z,100439.66
2022-07-29T06:03:32.610Z,100440.56
2022-07-29T06:06:35.842Z,100438.03
2022-07-29T06:09:39.114Z,100450.22
2022-07-29T06:12:41.632Z,100444.63
2022-07-29T06:15:52.516Z,100443.34
2022-07-29T06:18:55.491Z,100443.72
2022-07-29T06:21:58.686Z,100443.56
2022-07-29T06:25:08.014Z,100447.63
2022-07-29T06:28:14.759Z,100450.25
2022-07-29T06:31:19.255Z,100454.28
2022-07-29T06:34:22.436Z,100455.34
2022-07-29T06:37:28.082Z,100457.81
2022-07-29T06:40:51.617Z,100449.12
2022-07-29T06:44:00.202Z,100450.00
2022-07-29T06:47:15.147Z,100458.25
2022-07-29T06:50:20.664Z,100453.94
2022-07-29T06:53:25.866Z,100453.97
2022-07-29T06:56:40.228Z,100457.69
2022-07-29T07:00:05.841Z,100463.66
2022-07-29T07:03:08.698Z,100456.09
2022-07-29T07:06:14.950Z,100456.53
2022-07-29T07:09:18.131Z,100457.41
2022-07-29T07:12:23.335Z,100456.09
2022-07-29T07:15:39.857Z,100450.06
2022-07-29T07:18:46.407Z,100462.69
2022-07-29T07:21:49.366Z,100460.28
2022-07-29T07:25:04.893Z,100452.19
2022-07-29T07:28:44.242Z,100450.31
2022-07-29T07:32:25.325Z,100451.84
2022-07-29T07:35:50.654Z,100451.09
2022-07-29T07:39:32.225Z,100452.75
2022-07-29T07:43:03.054Z,100439.81
2022-07-29T07:46:43.361Z,100442.03
2022-07-29T07:50:01.566Z,100441.66
2022-07-29T07:53:51.374Z,100431.94
2022-07-29T07:57:32.578Z,100442.56
2022-07-29T08:00:49.007Z,100440.84
2022-07-29T08:04:20.994Z,100442.91
2022-07-29T08:07:46.752Z,100439.00
2022-07-29T08:11:21.165Z,100444.72
2022-07-29T08:14:48.595Z,100445.50
2022-07-29T08:18:14.856Z,100443.19
2022-07-29T08:21:40.133Z,100442.38
2022-07-29T08:25:21.381Z,100439.53
2022-07-29T08:28:41.988Z,100433.75
2022-07-29T08:32:36.935Z,100436.19
2022-07-29T08:36:00.754Z,100430.22
2022-07-29T08:43:37.559Z,100427.25
2022-07-29T08:47:26.015Z,100426.63
2022-07-29T08:51:29.677Z,100430.81
2022-07-29T09:12:50.525Z,100424.34
2022-07-29T09:20:27.522Z,100422.66
2022-07-29T09:50:25.941Z,100395.03
2022-07-29T09:54:35.537Z,100388.53
2022-07-29T09:58:23.670Z,100379.81
2022-07-29T10:02:02.260Z,100379.72
2022-07-29T10:05:41.522Z,100370.19
2022-07-29T10:09:11.805Z,100370.28
2022-07-29T10:12:53.932Z,100374.25
2022-07-29T10:16:34.280Z,100381.69
2022-07-29T10:20:00.825Z,100369.59
2022-07-29T10:23:47.044Z,100360.56
2022-07-29T10:27:07.354Z,100368.59
2022-07-29T10:30:41.780Z,100372.34
2022-07-29T10:34:54.830Z,100370.03
2022-07-29T10:38:45.715Z,100361.78
2022-07-29T10:42:29.782Z,100365.09
2022-07-29T10:45:57.761Z,100362.50
2022-07-29T10:49:30.960Z,100362.03
2022-07-29T10:53:00.026Z,100340.72
2022-07-29T10:56:30.483Z,100348.56
2022-07-29T11:00:09.455Z,100342.00
2022-07-29T11:03:57.250Z,100340.38
2022-07-29T11:08:25.303Z,100333.50
2022-07-29T11:11:52.101Z,100338.44
2022-07-29T11:16:29.937Z,100327.44
2022-07-29T11:19:26.176Z,100320.22
2022-07-29T11:30:14.571Z,100305.56
2022-07-29T11:33:56.530Z,100309.22
2022-07-29T11:37:32.550Z,100298.16
2022-07-29T11:41:24.132Z,100309.25
2022-07-29T11:45:44.122Z,100301.37
2022-07-29T11:48:32.649Z,100291.81
2022-07-29T11:52:11.838Z,100290.66
2022-07-29T11:55:51.609Z,100284.50
2022-07-29T11:59:15.461Z,100276.72
2022-07-29T12:02:48.665Z,100273.50
2022-07-29T12:06:22.454Z,100279.81
2022-07-29T12:10:20.037Z,100286.94
2022-07-29T12:13:44.975Z,100279.78
2022-07-29T12:17:30.877Z,100268.00
2022-07-29T12:21:13.013Z,100273.28
2022-07-29T12:25:23.258Z,100261.69
2022-07-29T12:28:28.165Z,100268.00
2022-07-29T12:31:58.265Z,100260.75
2022-07-29T12:35:34.794Z,100251.09
2022-07-29T12:39:02.326Z,100257.50
2022-07-29T12:42:37.333Z,100252.59
2022-07-29T12:46:17.429Z,100245.31
2022-07-29T12:49:38.037Z,100232.03
2022-07-29T12:53:12.660Z,100227.22
2022-07-29T12:56:42.276Z,100225.69
2022-07-29T13:00:09.077Z,100223.53
2022-07-29T13:03:30.251Z,100211.25
2022-07-29T13:07:07.667Z,100207.78
2022-07-29T13:10:38.873Z,100209.56
2022-07-29T13:14:06.599Z,100210.00
2022-07-29T13:17:32.964Z,100207.63
2022-07-29T13:24:56.113Z,100195.66
2022-07-29T13:28:35.374Z,100187.72
2022-07-29T13:32:04.922Z,100189.72
2022-07-29T13:35:35.167Z,100188.97
2022-07-29T13:39:04.048Z,100183.72
2022-07-29T13:42:45.435Z,100172.16
2022-07-29T13:46:14.255Z,100176.16
2022-07-29T13:49:54.170Z,100173.31
2022-07-29T13:53:39.608Z,100174.16
2022-07-29T13:57:16.561Z,100164.94
2022-07-29T14:00:52.674Z,100158.69
2022-07-29T14:04:24.338Z,100155.53
2022-07-29T14:07:51.980Z,100151.72
2022-07-29T14:11:34.889Z,100147.41
2022-07-29T14:15:05.317Z,100145.78
2022-07-29T14:18:46.138Z,100139.16
2022-07-29T14:22:11.054Z,100144.31
2022-07-29T14:25:49.496Z,100139.34
2022-07-29T14:29:17.218Z,100135.94
2022-07-29T14:33:04.426Z,100137.12
2022-07-29T14:36:33.961Z,100138.69
2022-07-29T14:40:21.410Z,100132.03
2022-07-29T14:44:08.964Z,100123.19
2022-07-29T14:47:34.858Z,100121.84
2022-07-29T14:51:05.294Z,100115.25
2022-07-29T14:54:45.501Z,100112.03
2022-07-29T14:58:16.477Z,100112.56
2022-07-29T15:01:55.282Z,100101.28
2022-07-29T15:05:22.656Z,100102.38
2022-07-29T15:09:03.449Z,100108.44
2022-07-29T15:12:31.973Z,100098.06
2022-07-29T15:16:00.296Z,100091.75
2022-07-29T15:19:24.401Z,100083.38
2022-07-29T15:23:03.671Z,100078.84
2022-07-29T15:26:31.125Z,100086.19
2022-07-29T15:30:10.835Z,100079.22
2022-07-29T15:33:36.471Z,100081.63
2022-07-29T15:37:14.137Z,100079.59
2022-07-29T15:40:47.497Z,100073.44
2022-07-29T15:44:24.061Z,100060.38
2022-07-29T15:47:51.523Z,100063.50
2022-07-29T15:51:29.148Z,100069.00
2022-07-29T15:54:57.778Z,100064.56
2022-07-29T15:58:43.826Z,100059.62
2022-07-29T16:02:14.477Z,100060.25
2022-07-29T16:05:55.795Z,100057.97
2022-07-29T16:09:24.011Z,100060.50
2022-07-29T16:13:08.135Z,100056.78
2022-07-29T16:16:35.604Z,100062.81
2022-07-29T16:20:08.228Z,100057.03
2022-07-29T16:23:52.917Z,100059.59
2022-07-29T16:27:18.719Z,100052.88
2022-07-29T16:30:48.721Z,100057.50
2022-07-29T16:34:24.699Z,100054.97
2022-07-29T16:37:56.563Z,100057.31
2022-07-29T16:41:27.489Z,100046.25
2022-07-29T16:44:55.855Z,100045.16
2022-07-29T16:48:44.417Z,100040.87
2022-07-29T16:52:15.927Z,100046.97
2022-07-29T16:55:42.097Z,100046.41
2022-07-29T16:59:19.475Z,100041.41
2022-07-29T17:03:01.541Z,100039.34
2022-07-29T17:06:50.746Z,100036.66
2022-07-29T17:10:16.349Z,100047.06
2022-07-29T17:14:00.482Z,100043.50
2022-07-29T17:17:38.798Z,100043.94
2022-07-29T17:21:29.972Z,100047.97
2022-07-29T17:25:02.863Z,100044.94
2022-07-29T17:28:48.510Z,100035.25
2022-07-29T17:32:14.279Z,100045.06
2022-07-29T17:36:09.575Z,100047.03
2022-07-29T17:39:35.711Z,100041.59
2022-07-29T17:43:13.539Z,100050.94
2022-07-29T17:46:41.597Z,100048.59
2022-07-29T17:50:23.785Z,100044.69
2022-07-29T17:53:52.882Z,100043.84
2022-07-29T17:57:33.950Z,100042.25
2022-07-29T18:00:59.913Z,100048.38
2022-07-29T18:04:38.783Z,100050.56
2022-07-29T18:08:06.844Z,100053.59
2022-07-29T18:11:46.264Z,100054.22
2022-07-29T18:15:11.431Z,100054.41
2022-07-29T18:18:48.976Z,100057.75
2022-07-29T18:22:26.828Z,100060.72
2022-07-29T18:26:07.255Z,100054.66
2022-07-29T18:29:34.761Z,100064.53
2022-07-29T18:33:21.644Z,100074.87
2022-07-29T18:36:47.874Z,100074.63
2022-07-29T18:40:25.852Z,100071.78
2022-07-29T18:43:51.302Z,100076.97
2022-07-29T18:47:32.240Z,100078.75
2022-07-29T18:51:09.287Z,100081.37
2022-07-29T18:54:45.446Z,100078.59
2022-07-29T18:58:13.814Z,100090.97
2022-07-29T19:02:06.240Z,100090.91
2022-07-29T19:05:45.715Z,100084.66
2022-07-29T19:09:17.256Z,100083.03
2022-07-29T19:12:54.547Z,100093.47
2022-07-29T19:16:27.360Z,100089.06
2022-07-29T19:20:08.142Z,100100.59
2022-07-29T19:24:00.072Z,100113.72
2022-07-29T19:27:13.641Z,100122.59
2022-07-29T19:30:44.272Z,100117.16
2022-07-29T19:34:35.395Z,100117.72
2022-07-29T19:38:04.538Z,100119.88
2022-07-29T19:41:44.093Z,100107.88
2022-07-29T19:45:10.325Z,100113.16
2022-07-29T19:48:39.973Z,100102.28
2022-07-29T19:52:05.937Z,100111.13
2022-07-29T19:55:46.601Z,100111.09
2022-07-29T19:59:04.323Z,100105.97
2022-07-29T20:02:34.328Z,100101.97
2022-07-29T20:06:04.795Z,100099.41
2022-07-29T20:09:22.153Z,100102.38
2022-07-29T20:12:55.069Z,100104.66
2022-07-29T20:16:18.890Z,100104.47
2022-07-29T20:19:39.053Z,100107.81
2022-07-29T20:23:06.922Z,100121.38
2022-07-29T20:26:38.036Z,100119.72
2022-07-29T20:30:15.383Z,100132.78
2022-07-29T20:33:40.473Z,100123.75
2022-07-29T20:37:28.983Z,100121.87
2022-07-29T20:40:58.689Z,100115.53
2022-07-29T20:44:37.163Z,100116.62
2022-07-29T20:48:08.143Z,100131.66
2022-07-29T20:51:43.729Z,100122.25
2022-07-29T20:55:11.818Z,100123.69
2022-07-29T20:58:52.845Z,100129.78
2022-07-29T21:02:18.381Z,100132.44
2022-07-29T21:05:57.446Z,100143.59
2022-07-29T21:09:22.403Z,100151.00
2022-07-29T21:13:00.095Z,100153.59
2022-07-29T21:16:26.782Z,100156.88
2022-07-29T21:20:10.311Z,100152.81
2022-07-29T21:23:44.390Z,100150.47
2022-07-29T21:27:32.621Z,100158.75
2022-07-29T21:31:02.706Z,100166.03
2022-07-29T21:34:44.942Z,100155.03
2022-07-29T21:38:18.838Z,100153.72
2022-07-29T21:41:58.755Z,100161.97
2022-07-29T21:45:26.613Z,100173.09
2022-07-29T21:49:07.604Z,100171.72
2022-07-29T21:52:33.270Z,100179.59
2022-07-29T21:56:02.427Z,100176.47
2022-07-29T21:59:28.253Z,100170.88
2022-07-29T22:03:05.763Z,100176.53
2022-07-29T22:06:45.654Z,100186.50
2022-07-29T22:10:18.700Z,100189.75
2022-07-29T22:13:58.915Z,100194.34
2022-07-29T22:17:26.828Z,100190.75
2022-07-29T22:21:04.481Z,100199.47
2022-07-29T22:24:32.338Z,100208.62
2022-07-29T22:28:12.425Z,100202.19
2022-07-29T22:31:37.437Z,100202.44
2022-07-29T22:35:15.856Z,100205.38
2022-07-29T22:38:43.135Z,100200.22
2022-07-29T22:42:20.269Z,100202.97
2022-07-29T22:45:55.610Z,100203.41
2022-07-29T22:49:34.157Z,100194.00
2022-07-29T22:53:01.862Z,100197.97
2022-07-29T22:56:39.588Z,100197.53
2022-07-29T23:00:11.696Z,100203.50
2022-07-29T23:03:52.434Z,100202.06
2022-07-29T23:07:22.439Z,100202.56
2022-07-29T23:11:03.137Z,100195.91
2022-07-29T23:14:28.488Z,100186.25
2022-07-29T23:18:09.323Z,100186.03
2022-07-29T23:21:36.446Z,100185.13
2022-07-29T23:25:15.760Z,100176.53
2022-07-29T23:28:46.515Z,100178.72
2022-07-29T23:32:26.436Z,100176.47
2022-07-29T23:35:51.586Z,100178.47
2022-07-29T23:39:29.303Z,100179.84
2022-07-29T23:42:57.016Z,100176.59
2022-07-29T23:46:35.225Z,100176.03
2022-07-29T23:50:00.912Z,100160.47
2022-07-29T23:53:39.381Z,100157.44
2022-07-29T23:57:07.043Z,100160.38
